»·PEaware :: N51254 KSBA-KBUR

N51254 :: KSBA-KBUR

FLIGHT INFORMATION

Flight Status: Arrived
Operator: Privately registered:
United States
More flights under this callsign
Pilot: Hasan B. (9605)
Aircraft: CESSNA 172 SKYHAWK
(C172)
More flights by this aircraft type
Origin: KSBA Santa Barbara Mun
United States
Destination: KBUR Bob Hope-Burbank
United States
More flights between these airports :: More routes between these airports
Route: +
File this flight plan on PilotEdge
Remarks:
Altitude:
(Current/Filed)
4,500ft
Speed:
(Current/Filed)
0kts
Departed: 03-Oct-18 05:43 PM
Arrived: 03-Oct-18 06:48 PM
Distance/Time
Traveled:
75nm/1:04
Distance/Time
To Go:
Arrived

Flight Plot

Page will automatically refresh every two minutes.


Map Options




Map Legend


Flown Route
Filed Route
Departure Airport
Arrival Airport
Navaid (VOR, NDB)
Fix

Horizontal Profiles

Position Reports

Time Latitude Longitude Heading Altitude Ground
Speed
03-Oct-18 17:32 34.422664 -119.835593 340 10ft 0kts
03-Oct-18 17:33 34.422664 -119.835593 340 10ft 0kts
03-Oct-18 17:34 34.422664 -119.835593 340 10ft 0kts
03-Oct-18 17:35 34.422664 -119.835593 340 10ft 0kts
03-Oct-18 17:36 34.422664 -119.835593 340 10ft 0kts
03-Oct-18 17:37 34.422794 -119.836720 270 12ft 9kts
03-Oct-18 17:38 34.424930 -119.837801 344 13ft 28kts
03-Oct-18 17:39 34.426723 -119.835857 82 10ft 20kts
03-Oct-18 17:40 34.427050 -119.834617 359 10ft 0kts
03-Oct-18 17:41 34.427062 -119.834616 359 10ft 0kts
03-Oct-18 17:42 34.427062 -119.834616 359 10ft 0kts
03-Oct-18 17:43 34.427062 -119.834616 359 10ft 0kts
03-Oct-18 17:44 34.427739 -119.834852 307 10ft 20kts
03-Oct-18 17:45 34.427297 -119.848531 261 323ft 75kts
03-Oct-18 17:46 34.425088 -119.868044 258 926ft 80kts
03-Oct-18 17:47 34.422258 -119.888412 264 1412ft 89kts
03-Oct-18 17:48 34.416021 -119.907709 196 1669ft 85kts
03-Oct-18 17:49 34.403337 -119.910804 185 2100ft 86kts
03-Oct-18 17:50 34.387403 -119.914601 187 2622ft 86kts
03-Oct-18 17:51 34.371900 -119.919506 195 2972ft 93kts
03-Oct-18 17:52 34.365401 -119.921417 190 2994ft 96kts
03-Oct-18 17:55 34.347589 -119.925654 0 3071ft 0kts
03-Oct-18 17:56 34.335971 -119.930075 194 3017ft 105kts
03-Oct-18 17:57 34.316682 -119.934348 188 2968ft 107kts
03-Oct-18 17:58 34.300138 -119.927595 117 3175ft 102kts
03-Oct-18 17:59 34.295781 -119.903624 94 3488ft 100kts
03-Oct-18 18:00 34.295648 -119.880351 90 3568ft 101kts
03-Oct-18 18:01 34.293393 -119.855925 99 3594ft 101kts
03-Oct-18 18:02 34.291983 -119.831071 87 3564ft 102kts
03-Oct-18 18:03 34.289641 -119.785351 97 3501ft 103kts
03-Oct-18 18:04 34.286344 -119.735588 90 3482ft 102kts
03-Oct-18 18:05 34.279881 -119.685487 97 3473ft 100kts
03-Oct-18 18:06 34.281324 -119.636056 80 3480ft 99kts
03-Oct-18 18:07 34.281343 -119.588350 99 3405ft 103kts
03-Oct-18 18:08 34.274008 -119.541329 94 3479ft 97kts
03-Oct-18 18:09 34.272186 -119.496468 91 3524ft 97kts
03-Oct-18 18:10 34.271151 -119.449105 89 3569ft 98kts
03-Oct-18 18:11 34.268800 -119.363224 89 3580ft 99kts
03-Oct-18 18:12 34.270265 -119.287422 89 3560ft 100kts
03-Oct-18 18:13 34.269627 -119.261750 95 3570ft 100kts
03-Oct-18 18:14 34.267218 -119.232957 95 3562ft 100kts
03-Oct-18 18:15 34.258998 -119.155282 95 3552ft 101kts
03-Oct-18 18:16 34.254161 -119.074197 92 3557ft 100kts
03-Oct-18 18:17 34.246985 -118.998686 101 3514ft 101kts
03-Oct-18 18:18 34.240437 -118.956271 99 3526ft 101kts
03-Oct-18 18:19 34.238139 -118.936902 93 3520ft 101kts
03-Oct-18 18:20 34.236296 -118.916933 100 3515ft 101kts
03-Oct-18 18:21 34.233289 -118.898469 94 3521ft 100kts
03-Oct-18 18:22 34.232837 -118.870440 90 3531ft 100kts
03-Oct-18 18:23 34.231966 -118.829853 91 3525ft 100kts
03-Oct-18 18:24 34.230911 -118.809455 94 3526ft 100kts
03-Oct-18 18:25 34.229335 -118.789656 93 3527ft 100kts
03-Oct-18 18:26 34.233180 -118.770582 74 3528ft 100kts
03-Oct-18 18:27 34.231684 -118.749473 97 3494ft 102kts
03-Oct-18 18:28 34.229450 -118.729655 94 3475ft 103kts
03-Oct-18 18:29 34.228171 -118.709856 92 3432ft 104kts
03-Oct-18 18:30 34.227333 -118.690637 93 3425ft 103kts
03-Oct-18 18:31 34.225532 -118.670561 97 3411ft 103kts
03-Oct-18 18:32 34.222656 -118.651712 102 3418ft 101kts
03-Oct-18 18:33 34.220442 -118.634122 98 3448ft 99kts
03-Oct-18 18:34 34.218369 -118.616639 97 3464ft 99kts
03-Oct-18 18:35 34.216255 -118.598718 93 3481ft 99kts
03-Oct-18 18:36 34.215391 -118.581234 92 3497ft 99kts
03-Oct-18 18:37 34.214485 -118.563588 95 3512ft 98kts
03-Oct-18 18:38 34.212978 -118.546400 95 3525ft 99kts
03-Oct-18 18:39 34.211416 -118.529594 95 3484ft 103kts
03-Oct-18 18:40 34.210339 -118.515518 93 3329ft 107kts
03-Oct-18 18:41 34.208817 -118.495119 98 2975ft 111kts
03-Oct-18 18:42 34.206290 -118.481268 104 2679ft 99kts
03-Oct-18 18:43 34.202537 -118.462076 101 2432ft 97kts
03-Oct-18 18:44 34.199911 -118.444661 97 2337ft 99kts
03-Oct-18 18:45 34.198944 -118.429645 91 2123ft 99kts
03-Oct-18 18:46 34.198209 -118.409647 91 1714ft 97kts
03-Oct-18 18:47 34.198416 -118.395409 89 1337ft 98kts
03-Oct-18 18:48 34.198070 -118.380321 91 1092ft 64kts
03-Oct-18 18:49 34.197921 -118.369065 88 765ft 59kts
03-Oct-18 18:50 34.197806 -118.361385 88 717ft 25kts
03-Oct-18 18:51 34.197006 -118.360246 178 714ft 5kts
03-Oct-18 18:52 34.196827 -118.361185 264 715ft 6kts
03-Oct-18 18:53 34.196825 -118.361213 264 715ft 0kts
03-Oct-18 18:54 34.196160 -118.362684 158 714ft 21kts

Navigation Log

Ident Type
1. KSBA Airport
2. KBUR Airport